Time;durP1;ratioP1;P1;durP2;ratioP2;P2;SDS_P1;SDS_P2;PMS_P1;PMS_P2;Temp;Humidity;BMP_temperature;BMP_pressure;BME280_temperature;BME280_humidity;BME280_pressure;Samples;Min_cycle;Max_cycle;Signal;HPM_P1;HPM_P2
2023/03/15 00:02:13;;;;;;;6.80;5.00;;;;;;;6.51;44.45;96083.74;109876;1249;68433;-70
2023/03/15 00:04:44;;;;;;;7.30;4.70;;;;;;;6.52;44.12;96081.35;110112;1245;58943;-69
2023/03/15 00:07:13;;;;;;;7.50;4.70;;;;;;;6.57;43.83;96079.08;110111;1245;58887;-70
2023/03/15 00:09:42;;;;;;;6.00;4.30;;;;;;;6.62;43.36;96079.02;110130;1244;69835;-70
2023/03/15 00:12:12;;;;;;;6.80;5.00;;;;;;;6.73;42.88;96077.66;110126;1251;69895;-70
2023/03/15 00:14:42;;;;;;;7.20;4.60;;;;;;;6.84;42.76;96076.42;110112;1244;69293;-69
2023/03/15 00:17:11;;;;;;;7.20;4.60;;;;;;;6.86;43.21;96070.06;110110;1244;58915;-70
2023/03/15 00:19:41;;;;;;;;;;;;;;;6.80;43.74;96072.05;110128;1248;58892;-70
2023/03/15 00:22:10;;;;;;;7.10;4.60;;;;;;;6.71;44.70;96072.98;110054;1245;71185;-69
2023/03/15 00:24:41;;;;;;;7.00;5.30;;;;;;;6.57;44.36;96075.27;110093;1242;68699;-69
2023/03/15 00:27:10;;;;;;;7.50;4.90;;;;;;;6.47;43.83;96066.37;110075;1245;69076;-70
2023/03/15 00:29:40;;;;;;;5.40;4.30;;;;;;;6.40;43.70;96066.20;110144;1245;58866;-70
2023/03/15 00:32:10;;;;;;;7.10;4.50;;;;;;;6.37;43.25;96064.02;110105;1242;58861;-70
2023/03/15 00:34:41;;;;;;;6.10;3.80;;;;;;;6.36;43.08;96064.64;110113;1245;71468;-69
2023/03/15 00:37:11;;;;;;;;;;;;;;;6.38;42.98;96062.23;110137;1246;69229;-70
2023/03/15 00:39:44;;;;;;;7.30;4.60;;;;;;;6.40;43.39;96061.41;110135;1244;68531;-69
2023/03/15 00:42:14;;;;;;;6.20;4.20;;;;;;;6.37;43.44;96061.29;110072;1245;58930;-69
2023/03/15 00:44:44;;;;;;;6.10;4.70;;;;;;;6.31;43.49;96061.20;110053;1243;58876;-70
2023/03/15 00:47:14;;;;;;;5.60;3.80;;;;;;;6.24;43.39;96062.27;110109;1242;69735;-70
2023/03/15 00:49:45;;;;;;;5.80;4.00;;;;;;;6.16;43.73;96060.63;110120;1246;69262;-69
2023/03/15 00:52:17;;;;;;;7.30;4.40;;;;;;;6.08;43.82;96056.54;110057;1248;69428;-70
2023/03/15 00:54:52;;;;;;;7.10;4.60;;;;;;;6.02;43.95;96055.50;110070;1245;58894;-70
2023/03/15 00:57:24;;;;;;;7.60;4.60;;;;;;;5.96;43.67;96050.42;110125;1246;58873;-70
2023/03/15 00:59:54;;;;;;;6.60;4.30;;;;;;;5.93;43.60;96050.96;110097;1246;69752;-70
2023/03/15 01:02:25;;;;;;;5.80;4.40;;;;;;;5.91;43.52;96050.57;110104;1250;69320;-70
2023/03/15 01:04:55;;;;;;;6.90;5.20;;;;;;;5.87;44.32;96056.56;109870;1245;68224;-69
2023/03/15 01:07:25;;;;;;;7.60;5.80;;;;;;;5.84;43.96;96057.64;110072;1246;58950;-70
2023/03/15 01:09:56;;;;;;;5.60;4.30;;;;;;;5.79;44.44;96055.45;110075;1245;58902;-70
2023/03/15 01:12:31;;;;;;;7.60;5.10;;;;;;;5.70;44.43;96050.23;110124;1244;70564;-69
2023/03/15 01:15:06;;;;;;;5.30;3.30;;;;;;;5.63;44.78;96047.84;110119;1246;69232;-70
2023/03/15 01:17:39;;;;;;;6.60;3.80;;;;;;;5.57;44.15;96043.95;110047;1244;68355;-70
2023/03/15 01:20:13;;;;;;;6.50;3.50;;;;;;;5.51;44.16;96041.65;110118;1241;58914;-71
2023/03/15 01:22:43;;;;;;;8.10;4.10;;;;;;;5.44;44.62;96038.39;110147;1244;58833;-71
2023/03/15 01:25:16;;;;;;;5.60;3.90;;;;;;;5.38;45.09;96037.45;110246;1246;69862;-70
2023/03/15 01:27:48;;;;;;;6.20;4.00;;;;;;;5.33;44.24;96034.01;110112;1246;69160;-70
2023/03/15 01:30:17;;;;;;;6.10;4.00;;;;;;;5.28;44.91;96034.05;110107;1246;69123;-70
2023/03/15 01:32:46;;;;;;;7.30;4.90;;;;;;;5.20;45.64;96033.22;109928;1245;58884;-70
2023/03/15 01:35:17;;;;;;;6.30;4.60;;;;;;;5.10;45.84;96035.30;109865;1244;58905;-70
2023/03/15 01:37:51;;;;;;;6.00;4.90;;;;;;;5.00;48.32;96037.23;109806;1245;70611;-70
2023/03/15 01:40:23;;;;;;;6.60;4.60;;;;;;;4.90;47.63;96038.01;109981;1246;69262;-70
2023/03/15 01:43:03;;;;;;;8.20;4.50;;;;;;;4.81;46.71;96037.22;110059;1245;68604;-70
2023/03/15 01:45:59;;;;;;;6.70;4.40;;;;;;;4.73;46.31;96033.33;110092;1245;58944;-71
2023/03/15 01:49:07;;;;;;;7.00;4.30;;;;;;;4.66;47.07;96033.52;109878;1246;58899;-70
2023/03/15 01:51:45;;;;;;;5.80;4.30;;;;;;;4.59;46.87;96032.05;109622;1248;70881;-70
2023/03/15 01:54:31;;;;;;;4.90;4.00;;;;;;;4.53;47.86;96030.21;110140;1245;68345;-70
2023/03/15 01:57:07;;;;;;;6.00;3.50;;;;;;;4.49;47.08;96027.59;110134;1245;68110;-70
2023/03/15 01:59:50;;;;;;;6.80;3.80;;;;;;;4.45;46.38;96024.48;110082;1242;58866;-69
2023/03/15 02:02:24;;;;;;;5.50;3.90;;;;;;;4.42;47.49;96020.87;110122;1245;58881;-69
2023/03/15 02:05:10;;;;;;;5.80;3.90;;;;;;;4.40;46.37;96019.27;110014;1245;69344;-69
2023/03/15 02:07:48;;;;;;;5.50;3.90;;;;;;;4.38;46.55;96017.34;109965;1249;69221;-71
2023/03/15 02:10:30;;;;;;;6.80;4.10;;;;;;;4.35;46.92;96015.11;110027;1245;68519;-69
2023/03/15 02:13:02;;;;;;;4.80;3.90;;;;;;;4.31;46.72;96018.02;109829;1245;58900;-69
2023/03/15 02:15:34;;;;;;;6.70;4.90;;;;;;;4.24;46.31;96008.48;110124;1244;58804;-69
2023/03/15 02:18:07;;;;;;;6.80;4.70;;;;;;;4.19;48.52;96015.92;110011;1244;71529;-69
2023/03/15 02:20:51;;;;;;;7.10;4.80;;;;;;;4.11;49.19;96009.90;109830;1249;69116;-70
2023/03/15 02:23:23;;;;;;;5.80;4.30;;;;;;;4.02;50.79;96010.70;109854;1245;69219;-70
2023/03/15 02:26:07;;;;;;;;;;;;;;;3.94;52.16;96009.23;109802;1243;59305;-71
2023/03/15 02:28:40;;;;;;;6.60;4.30;;;;;;;3.83;50.69;96007.52;110135;1250;58951;-70
2023/03/15 02:31:14;;;;;;;6.50;3.70;;;;;;;3.76;50.72;96001.80;110200;1245;69911;-70
2023/03/15 02:33:48;;;;;;;5.40;4.10;;;;;;;3.70;49.37;95998.94;110150;1245;68666;-70
2023/03/15 02:36:22;;;;;;;7.30;3.90;;;;;;;3.65;48.81;95995.86;110321;1244;69260;-70
2023/03/15 02:38:53;;;;;;;5.00;3.70;;;;;;;3.59;49.89;95996.89;110277;1246;58864;-71
2023/03/15 02:41:29;;;;;;;5.00;3.80;;;;;;;3.57;51.43;96003.59;110088;1245;58869;-71
2023/03/15 02:44:11;;;;;;;4.30;3.40;;;;;;;3.53;50.69;96001.64;110102;1244;69821;-71
2023/03/15 02:46:43;;;;;;;4.40;3.60;;;;;;;3.48;49.30;95996.80;110209;1249;68474;-69
2023/03/15 02:49:16;;;;;;;5.60;3.70;;;;;;;3.46;49.00;95997.42;110196;1242;68539;-70
2023/03/15 02:51:46;;;;;;;5.80;3.90;;;;;;;3.42;49.62;95994.42;110216;1244;58914;-71
2023/03/15 02:54:18;;;;;;;5.00;3.40;;;;;;;3.39;49.83;95994.11;109845;1246;58962;-70
2023/03/15 02:56:47;;;;;;;5.40;3.30;;;;;;;3.35;49.74;95993.91;109966;1245;70408;-71
2023/03/15 02:59:18;;;;;;;;;;;;;;;3.30;49.60;95988.85;109938;1247;69726;-69
2023/03/15 03:01:48;;;;;;;;;;;;;;;3.26;50.85;95986.23;109834;1245;69650;-69
2023/03/15 03:04:18;;;;;;;;;;;;;;;3.21;53.20;95980.16;110101;1246;58874;-69
2023/03/15 03:06:48;;;;;;;;;;;;;;;3.17;54.46;95973.88;110146;1244;58878;-70
2023/03/15 03:09:22;;;;;;;;;;;;;;;3.13;52.05;95973.15;110009;1245;70730;-69
2023/03/15 03:11:51;;;;;;;;;;;;;;;3.09;50.18;95970.27;109903;1245;69878;-70
2023/03/15 03:14:25;;;;;;;;;;;;;;;3.06;52.94;95975.46;110110;1246;69121;-69
2023/03/15 03:16:54;;;;;;;;;;;;;;;3.02;54.85;95976.41;110099;1245;58895;-69
2023/03/15 03:19:25;;;;;;;;;;;;;;;2.97;55.27;95975.23;109957;1245;58915;-69
2023/03/15 03:21:56;;;;;;;;;;;;;;;2.91;53.26;95977.82;109860;1243;70650;-69
2023/03/15 03:24:30;;;;;;;;;;;;;;;2.86;52.36;95977.65;110151;1244;68528;-69
2023/03/15 03:27:00;;;;;;;;;;;;;;;2.81;53.76;95971.77;110154;1245;68310;-70
2023/03/15 03:29:31;;;;;;;;;;;;;;;2.76;54.25;95974.48;110106;1245;58987;-70
2023/03/15 03:32:03;;;;;;;;;;;;;;;2.70;56.93;95974.55;110077;1245;58957;-69
2023/03/15 03:34:32;;;;;;;;;;;;;;;2.63;57.26;95967.61;110107;1244;70535;-69
2023/03/15 03:37:02;;;;;;;;;;;;;;;2.56;55.77;95958.39;110006;1244;69242;-69
2023/03/15 03:39:58;;;;;;;;;;;;;;;2.54;56.39;95964.38;109989;1245;69565;-71
2023/03/15 03:42:29;;;;;;;;;;;;;;;2.51;55.26;95961.67;110154;1244;58916;-70
2023/03/15 03:44:59;;;;;;;;;;;;;;;2.48;53.79;95959.64;110126;1245;58958;-70
2023/03/15 03:47:38;;;;;;;;;;;;;;;2.44;58.12;95961.77;110112;1242;71252;-71
2023/03/15 03:50:09;;;;;;;;;;;;;;;2.39;57.25;95959.66;110067;1245;70205;-71
2023/03/15 03:52:42;;;;;;;;;;;;;;;2.33;57.72;95957.61;110020;1244;69301;-70
2023/03/15 03:55:17;;;;;;;;;;;;;;;2.28;56.88;95958.80;110311;1245;58926;-71
2023/03/15 03:57:46;;;;;;;;;;;;;;;2.23;57.58;95955.01;109916;1245;58928;-70
2023/03/15 04:00:22;;;;;;;;;;;;;;;2.16;56.14;95955.27;109989;1243;70624;-71
2023/03/15 04:02:52;;;;;;;;;;;;;;;2.11;56.25;95953.83;109911;1243;68101;-70
2023/03/15 04:05:22;;;;;;;;;;;;;;;2.09;55.03;95955.92;109813;1254;69750;-70
2023/03/15 04:07:51;;;;;;;;;;;;;;;2.07;55.45;95954.65;109903;1244;58972;-70
2023/03/15 04:10:25;;;;;;;;;;;;;;;2.05;56.05;95957.88;110050;1245;58901;-70
2023/03/15 04:12:56;;;;;;;;;;;;;;;2.03;55.85;95957.77;109967;1244;71412;-70
2023/03/15 04:15:25;;;;;;;;;;;;;;;2.01;58.37;95952.06;109823;1248;69838;-72
2023/03/15 04:17:56;;;;;;;;;;;;;;;2.02;58.62;95949.57;110015;1244;69266;-70
2023/03/15 04:20:33;;;;;;;;;;;;;;;2.03;59.98;95948.69;110111;1244;58941;-70
2023/03/15 04:23:06;;;;;;;;;;;;;;;2.01;60.02;95949.80;110162;1244;58950;-70
2023/03/15 04:25:56;;;;;;;;;;;;;;;2.01;61.85;95951.01;110097;1245;70956;-70
2023/03/15 04:28:57;;;;;;;;;;;;;;;2.03;61.72;95953.67;109745;1248;69254;-69
2023/03/15 04:32:00;;;;;;;;;;;;;;;2.05;62.55;95949.09;109876;1246;69845;-70
2023/03/15 04:34:44;;;;;;;;;;;;;;;2.08;61.09;95950.80;110167;1244;58902;-69
2023/03/15 04:37:33;;;;;;;;;;;;;;;2.11;63.54;95954.58;109943;1243;58881;-70
2023/03/15 04:40:23;;;;;;;;;;;;;;;2.13;64.55;95951.51;109813;1245;70881;-70
2023/03/15 04:43:07;;;;;;;;;;;;;;;2.17;63.97;95951.10;109967;1244;68782;-70
2023/03/15 04:45:55;;;;;;;;;;;;;;;2.22;63.44;95947.17;110045;1245;69751;-70
2023/03/15 04:48:51;;;;;;;;;;;;;;;2.30;65.43;95946.13;109696;1244;58953;-69
2023/03/15 04:51:38;;;;;;;;;;;;;;;2.32;63.53;95945.15;109790;1244;58848;-71
2023/03/15 04:54:27;;;;;;;;;;;;;;;2.34;62.84;95946.58;109770;1244;71010;-69
2023/03/15 04:57:26;;;;;;;;;;;;;;;2.37;62.77;95950.19;110113;1244;69584;-71
2023/03/15 05:00:11;;;;;;;;;;;;;;;2.38;62.67;95952.99;110061;1245;68642;-69
2023/03/15 05:03:01;;;;;;;;;;;;;;;2.39;62.98;95956.36;109977;1245;58980;-69
2023/03/15 05:05:54;;;;;;;;;;;;;;;2.39;63.45;95953.84;109754;1246;58892;-68
2023/03/15 05:08:26;;;;;;;;;;;;;;;2.38;62.76;95957.30;109959;1244;69812;-69
2023/03/15 05:11:24;;;;;;;;;;;;;;;2.39;62.31;95956.23;109546;1248;69975;-69
2023/03/15 05:14:11;;;;;;;;;;;;;;;2.41;63.01;95955.56;110075;1244;69621;-69
2023/03/15 05:16:54;;;;;;;;;;;;;;;2.44;64.14;95955.88;110099;1243;58866;-69
2023/03/15 05:19:42;;;;;;;;;;;;;;;2.47;64.93;95957.10;110105;1245;58881;-69
2023/03/15 05:22:28;;;;;;;;;;;;;;;2.47;65.31;95954.66;110125;1242;70209;-69
2023/03/15 05:25:15;;;;;;;;;;;;;;;2.49;65.13;95956.42;110072;1244;69232;-69
2023/03/15 05:28:03;;;;;;;;;;;;;;;2.51;67.28;95955.28;109941;1245;69137;-70
2023/03/15 05:30:46;;;;;;;;;;;;;;;2.55;66.37;95951.41;110246;1245;58942;-70
2023/03/15 05:33:45;;;;;;;;;;;;;;;2.61;67.28;95954.33;109942;1244;58876;-70
2023/03/15 05:36:40;;;;;;;;;;;;;;;2.69;67.50;95950.86;110136;1244;71179;-70
2023/03/15 05:39:36;;;;;;;;;;;;;;;2.80;66.82;95951.57;109914;1245;69621;-70
2023/03/15 05:42:29;;;;;;;;;;;;;;;2.86;66.44;95954.90;110005;1244;69900;-70
2023/03/15 05:45:28;;;;;;;;;;;;;;;2.89;65.95;95959.55;109543;1251;58937;-70
2023/03/15 05:48:31;;;;;;;;;;;;;;;2.92;64.61;95957.26;109869;1248;58944;-71
2023/03/15 05:51:26;;;;;;;;;;;;;;;2.92;64.45;95955.60;109826;1244;70028;-71
2023/03/15 05:54:19;;;;;;;;;;;;;;;2.92;65.72;95954.23;109988;1245;69599;-70
2023/03/15 05:57:07;;;;;;;;;;;;;;;2.94;66.67;95956.45;109939;1242;68773;-69
2023/03/15 05:59:44;;;;;;;;;;;;;;;3.03;65.74;95961.03;110082;1244;58913;-71
2023/03/15 06:02:41;;;;;;;;;;;;;;;3.11;65.35;95960.56;110032;1244;59251;-70
2023/03/15 06:05:33;;;;;;;;;;;;;;;3.20;66.37;95963.88;110094;1242;71192;-70
2023/03/15 06:08:03;;;;;;;;;;;;;;;3.30;66.38;95969.59;110116;1244;68823;-71
2023/03/15 06:10:33;;;;;;;;;;;;;;;3.36;64.66;95969.04;110072;1245;69902;-71
2023/03/15 06:13:05;;;;;;;;;;;;;;;3.33;67.32;95974.39;109978;1244;58861;-70
2023/03/15 06:15:35;;;;;;;;;;;;;;;3.38;68.16;95975.10;110155;1243;58875;-70
2023/03/15 06:18:03;;;;;;;;;;;;;;;3.45;65.27;95977.04;110212;1243;70543;-70
2023/03/15 06:20:32;;;;;;;;;;;;;;;3.51;64.28;95981.05;110137;1244;68423;-70
2023/03/15 06:23:06;;;;;;;;;;;;;;;3.58;63.46;95982.48;110134;1244;69902;-70
2023/03/15 06:25:41;;;;;;;;;;;;;;;3.68;62.79;95980.08;110052;1242;58895;-71
2023/03/15 06:28:10;;;;;;;;;;;;;;;3.81;62.36;95984.02;110145;1244;58936;-71
2023/03/15 06:30:42;;;;;;;;;;;;;;;3.95;63.97;95987.60;109989;1244;70864;-71
2023/03/15 06:33:13;;;;;;;;;;;;;;;4.09;63.39;95986.09;110131;1244;69654;-70
2023/03/15 06:35:42;;;;;;;;;;;;;;;4.26;62.58;95985.42;110179;1244;68424;-71
2023/03/15 06:38:12;;;;;;;;;;;;;;;4.45;61.70;95987.50;110137;1245;58953;-71
2023/03/15 06:40:41;;;;;;;;;;;;;;;4.65;62.31;95990.58;110009;1244;58962;-71
2023/03/15 06:43:16;;;;;;;;;;;;;;;4.85;61.65;95988.77;110155;1244;70010;-71
2023/03/15 06:45:46;;;;;;;;;;;;;;;5.07;61.80;95991.65;110098;1244;68395;-70
2023/03/15 06:48:16;;;;;;;;;;;;;;;5.24;61.84;95992.88;109955;1249;69768;-71
2023/03/15 06:50:45;;;;;;;;;;;;;;;5.38;61.14;95992.70;109998;1243;58976;-71
2023/03/15 06:53:15;;;;;;;;;;;;;;;5.46;60.74;95993.77;110090;1244;58878;-71
2023/03/15 06:55:44;;;;;;;;;;;;;;;5.61;60.00;95990.07;110061;1246;70649;-71
2023/03/15 06:58:13;;;;;;;;;;;;;;;5.79;59.66;95986.48;110124;1244;69805;-70
2023/03/15 07:00:43;;;;;;;;;;;;;;;5.96;58.66;95985.00;110162;1245;69296;-69
2023/03/15 07:03:11;;;;;;;;;;;;;;;6.17;57.41;95979.98;110008;1244;58902;-69
2023/03/15 07:05:40;;;;;;;;;;;;;;;6.37;56.40;95982.49;110012;1245;58909;-69
2023/03/15 07:08:09;;;;;;;;;;;;;;;6.63;56.54;95980.66;109891;1245;71168;-70
2023/03/15 07:10:38;;;;;;;;;;;;;;;6.80;54.80;95977.70;109803;1244;70002;-70
2023/03/15 07:13:08;;;;;;;;;;;;;;;7.03;54.50;95977.11;110042;1244;69293;-69
2023/03/15 07:15:36;;;;;;;;;;;;;;;7.21;53.59;95974.08;110035;1244;59014;-69
2023/03/15 07:18:05;;;;;;;;;;;;;;;7.41;54.25;95968.38;110111;1244;58871;-69
2023/03/15 07:20:34;;;;;;;;;;;;;;;7.60;52.94;95963.86;110150;1244;70504;-71
2023/03/15 07:23:04;;;;;;;;;;;;;;;7.77;51.96;95959.39;109867;1244;69116;-70
2023/03/15 07:25:34;;;;;;;;;;;;;;;7.93;51.60;95958.51;109851;1244;68496;-69
2023/03/15 07:28:23;;;;;;;;;;;;;;;8.10;51.42;95965.23;110136;1244;58942;-70
2023/03/15 07:30:55;;;;;;;;;;;;;;;8.31;51.58;95969.46;110170;1244;58907;-70
2023/03/15 07:33:25;;;;;;;;;;;;;;;8.42;50.04;95971.78;110206;1244;70099;-70
2023/03/15 07:35:54;;;;;;;;;;;;;;;8.54;49.32;95972.69;110118;1243;68719;-70
2023/03/15 07:38:25;;;;;;;;;;;;;;;8.61;48.13;95971.56;109978;1244;69244;-70
2023/03/15 07:40:53;;;;;;;;;;;;;;;8.76;48.06;95973.40;110149;1241;58929;-70
2023/03/15 07:43:23;;;;;;;;;;;;;;;8.95;49.31;95966.10;110084;1244;58899;-70
2023/03/15 07:46:00;;;;;;;;;;;;;;;9.13;49.09;95970.89;110132;1244;71063;-69
2023/03/15 07:48:29;;;;;;;;;;;;;;;9.38;49.44;95975.84;110045;1244;69207;-70
2023/03/15 07:50:59;;;;;;;;;;;;;;;9.55;48.79;95976.22;110035;1244;69381;-70
2023/03/15 07:53:27;;;;;;;;;;;;;;;9.78;49.40;95970.97;109767;1250;58945;-70
2023/03/15 07:55:56;;;;;;;;;;;;;;;9.99;48.94;95972.67;109928;1244;58951;-70
2023/03/15 07:58:25;;;;;;;;;;;;;;;10.13;46.82;95972.68;110076;1244;70549;-70
2023/03/15 08:00:55;;;;;;;;;;;;;;;10.33;47.21;95973.27;110168;1244;69270;-70
2023/03/15 08:03:25;;;;;;;;;;;;;;;10.65;47.28;95977.79;109782;1243;69145;-71
2023/03/15 08:05:54;;;;;;;;;;;;;;;10.97;46.80;95976.75;109848;1245;58911;-72
2023/03/15 08:08:27;;;;;;;;;;;;;;;11.32;46.18;95974.58;110127;1244;58875;-72
2023/03/15 08:10:56;;;;;;;;;;;;;;;11.65;45.31;95972.67;110173;1243;70411;-72
2023/03/15 08:13:25;;;;;;;;;;;;;;;11.85;42.75;95967.55;109905;1248;68585;-71
2023/03/15 08:15:53;;;;;;;;;;;;;;;12.08;44.39;95966.98;110123;1244;69281;-70
2023/03/15 08:18:22;;;;;;;;;;;;;;;12.29;43.61;95964.33;110031;1244;58960;-70
2023/03/15 08:20:51;;;;;;;;;;;;;;;12.41;43.41;95959.37;110108;1241;58830;-70
2023/03/15 08:23:20;;;;;;;;;;;;;;;12.50;42.87;95962.88;109904;1244;70578;-69
2023/03/15 08:25:49;;;;;;;;;;;;;;;12.46;42.33;95962.34;110001;1244;69236;-70
2023/03/15 08:28:17;;;;;;;;;;;;;;;12.39;42.20;95961.75;110158;1244;69845;-70
2023/03/15 08:30:46;;;;;;;;;;;;;;;12.48;41.25;95961.43;109893;1245;58947;-70
2023/03/15 08:33:15;;;;;;;;;;;;;;;12.45;39.37;95966.55;109942;1244;58863;-71
2023/03/15 08:35:44;;;;;;;;;;;;;;;12.53;38.02;95969.19;109829;1244;71280;-72
2023/03/15 08:38:13;;;;;;;;;;;;;;;12.76;39.24;95973.44;109873;1245;69735;-73
2023/03/15 08:40:42;;;;;;;;;;;;;;;13.04;39.31;95969.56;110107;1244;68360;-71
2023/03/15 08:43:13;;;;;;;;;;;;;;;13.35;37.13;95972.16;110025;1244;59024;-70
2023/03/15 08:45:42;;;;;;;;;;;;;;;13.48;35.88;95976.68;110064;1245;58825;-71
2023/03/15 08:48:28;;;;;;;;;;;;;;;13.57;33.75;95983.95;110185;1244;70490;-72
2023/03/15 08:51:01;;;;;;;;;;;;;;;13.63;35.52;95990.48;110057;1244;69215;-70
2023/03/15 08:53:30;;;;;;;;;;;;;;;13.68;36.99;95990.14;109848;1245;69266;-70
2023/03/15 08:55:59;;;;;;;;;;;;;;;13.61;34.41;95989.32;110049;1243;58879;-71
2023/03/15 08:58:28;;;;;;;;;;;;;;;13.61;34.88;95992.96;110032;1245;58836;-71
2023/03/15 09:00:57;;;;;;;;;;;;;;;13.45;32.89;95997.45;110011;1244;71365;-71
2023/03/15 09:03:27;;;;;;;;;;;;;;;13.60;33.24;95999.08;109887;1245;69069;-71
2023/03/15 09:05:56;;;;;;;;;;;;;;;13.59;32.98;96002.61;109891;1243;69265;-70
2023/03/15 09:08:26;;;;;;;;;;;;;;;13.71;35.09;96002.71;109877;1244;58965;-71
2023/03/15 09:10:55;;;;;;;;;;;;;;;13.74;33.44;96005.23;109927;1244;58990;-70
2023/03/15 09:13:25;;;;;;;;;;;;;;;13.78;33.76;96010.35;109793;1244;70383;-72
2023/03/15 09:15:54;;;;;;;;;;;;;;;13.82;33.01;96010.16;109926;1244;69131;-71
2023/03/15 09:18:23;;;;;;;;;;;;;;;13.81;32.60;96008.31;110036;1243;68991;-70
2023/03/15 09:20:53;;;;;;;;;;;;;;;13.76;32.34;96011.95;109910;1244;58902;-71
2023/03/15 09:23:24;;;;;;;;;;;;;;;13.56;32.71;96012.22;109782;1244;58822;-72
2023/03/15 09:25:53;;;;;;;;;;;;;;;13.53;32.73;96015.70;109975;1244;70772;-72
2023/03/15 09:28:24;;;;;;;;;;;;;;;13.47;33.16;96012.36;109985;1244;68514;-72
2023/03/15 09:30:53;;;;;;;;;;;;;;;13.47;33.17;96012.33;109901;1244;69301;-71
2023/03/15 09:33:22;;;;;;;;;;;;;;;13.45;33.34;96012.84;109998;1243;58914;-72
2023/03/15 09:35:51;;;;;;;;;;;;;;;13.18;33.03;96006.63;109968;1244;58963;-70
2023/03/15 09:38:22;;;;;;;;;;;;;;;13.09;32.81;96011.71;110044;1244;71153;-70
2023/03/15 09:40:56;;;;;;;;;;;;;;;12.86;32.83;96003.32;109988;1244;68507;-70
2023/03/15 09:43:28;;;;;;;;;;;;;;;12.52;33.06;95994.23;109779;1244;69320;-72
2023/03/15 09:46:03;;;;;;;;;;;;;;;12.35;33.69;95995.36;109889;1244;58891;-73
2023/03/15 09:48:34;;;;;;;;;;;;;;;12.36;33.36;95989.25;110021;1244;58821;-70
2023/03/15 09:51:08;;;;;;;;;;;;;;;12.31;33.04;95987.17;109947;1244;71168;-69
2023/03/15 09:53:40;;;;;;;;;;;;;;;12.17;33.24;95984.05;109942;1244;69797;-72
2023/03/15 09:56:30;;;;;;;;;;;;;;;12.23;33.69;95984.52;109898;1244;69915;-72
2023/03/15 09:59:01;;;;;;;;;;;;;;;12.35;34.22;95984.43;109818;1244;58893;-71
2023/03/15 10:01:37;;;;;;;;;;;;;;;12.51;34.29;95983.85;110174;1244;58896;-70
2023/03/15 10:04:13;;;;;;;;;;;;;;;12.63;35.27;95985.43;110087;1244;71519;-70
2023/03/15 10:06:45;;;;;;;;;;;;;;;12.72;36.58;95987.42;110153;1244;69657;-70
2023/03/15 10:09:19;;;;;;;;;;;;;;;12.80;37.06;95991.77;110131;1244;68886;-71
2023/03/15 10:11:51;;;;;;;;;;;;;;;12.90;36.69;95992.25;110136;1244;58893;-70
2023/03/15 10:14:39;;;;;;;;;;;;;;;13.08;36.43;95998.10;110129;1244;58916;-71
2023/03/15 10:17:11;;;;;;;;;;;;;;;13.43;36.11;95998.70;110112;1244;70371;-71
2023/03/15 10:19:48;;;;;;;;;;;;;;;13.70;35.69;96003.02;110103;1244;69802;-71
2023/03/15 10:22:24;;;;;;;;;;;;;;;13.83;35.17;95999.73;109976;1243;69335;-70
2023/03/15 10:25:16;;;;;;;;;;;;;;;13.68;34.53;95995.03;109862;1244;58933;-70
2023/03/15 10:27:47;;;;;;;;;;;;;;;13.46;34.77;95994.08;109827;1245;58840;-70
2023/03/15 10:30:20;;;;;;;;;;;;;;;13.47;34.70;95994.83;109955;1244;70497;-70
2023/03/15 10:33:07;;;;;;;;;;;;;;;13.38;34.33;95998.20;110064;1243;69372;-70
2023/03/15 10:35:37;;;;;;;;;;;;;;;13.30;34.46;95996.13;109486;1245;469027;-70
2023/03/15 10:38:15;;;;;;;;;;;;;;;13.20;34.85;95998.13;110145;1244;58911;-70
2023/03/15 10:40:46;;;;;;;;;;;;;;;12.93;35.73;95992.66;110122;1242;58908;-71
2023/03/15 10:43:18;;;;;;;;;;;;;;;12.74;36.01;95991.80;110130;1244;71313;-72
2023/03/15 10:45:57;;;;;;;;;;;;;;;12.67;36.01;95988.89;110231;1244;68497;-72
2023/03/15 10:48:30;;;;;;;;;;;;;;;12.65;35.57;95988.52;110236;1244;69528;-71
2023/03/15 10:51:17;;;;;;;;;;;;;;;12.64;35.88;95990.55;110114;1244;58960;-71
2023/03/15 10:54:06;;;;;;;;;;;;;;;12.59;36.57;95992.30;110091;1244;58856;-71
2023/03/15 10:56:43;;;;;;;;;;;;;;;12.60;36.10;95990.33;110060;1243;70462;-70
2023/03/15 10:59:17;;;;;;;;;;;;;;;12.48;36.05;95985.80;110072;1244;68680;-70
2023/03/15 11:01:47;;;;;;;;;;;;;;;12.36;36.35;95987.02;109862;1244;69826;-71
2023/03/15 11:04:20;;;;;;;;;;;;;;;12.35;36.61;95979.62;109925;1245;59030;-70
2023/03/15 11:06:57;;;;;;;;;;;;;;;12.30;37.55;95979.23;109894;1244;58873;-70
2023/03/15 11:09:36;;;;;;;;;;;;;;;12.32;36.97;95971.90;109976;1244;71219;-70
2023/03/15 11:12:06;;;;;;;;;;;;;;;12.22;37.52;95965.42;110025;1244;68474;-70
2023/03/15 11:14:35;;;;;;;;;;;;;;;12.20;37.44;95968.05;109872;1244;69259;-70
2023/03/15 11:17:06;;;;;;;;;;;;;;;12.21;37.69;95974.39;109839;1244;58970;-71
2023/03/15 11:19:40;;;;;;;;;;;;;;;12.28;37.65;95966.70;109796;1244;58956;-70
2023/03/15 11:22:11;;;;;;;;;;;;;;;12.36;36.74;95963.27;110069;1244;70694;-70
2023/03/15 11:24:39;;;;;;;;;;;;;;;12.37;36.45;95959.13;109941;1247;69836;-72
2023/03/15 11:27:13;;;;;;;;;;;;;;;12.30;36.41;95953.91;109835;1243;69691;-71
2023/03/15 11:29:50;;;;;;;;;;;;;;;12.27;36.59;95954.20;109912;1244;58949;-72
2023/03/15 11:32:21;;;;;;;;;;;;;;;12.27;37.16;95953.19;109997;1244;58880;-71
2023/03/15 11:35:06;;;;;;;;;;;;;;;12.27;38.00;95952.27;110022;1244;70407;-71
2023/03/15 11:37:53;;;;;;;;;;;;;;;12.33;37.91;95941.23;110032;1244;69226;-69
2023/03/15 11:40:37;;;;;;;;;;;;;;;12.33;37.38;95935.76;110028;1244;70032;-71
2023/03/15 11:43:31;;;;;;;;;;;;;;;12.31;36.92;95932.34;110050;1244;59301;-72
2023/03/15 11:46:03;;;;;;;;;;;;;;;12.35;36.83;95928.35;109933;1244;58887;-71
2023/03/15 11:48:53;;;;;;;;;;;;;;;12.52;36.42;95937.79;110009;1244;70181;-71
2023/03/15 11:51:22;;;;;;;;;;;;;;;12.68;36.32;95948.16;110191;1244;69869;-72
2023/03/15 11:54:01;;;;;;;;;;;;;;;12.84;35.87;95957.48;110002;1244;69876;-71
2023/03/15 11:56:52;;;;;;;;;;;;;;;13.05;35.68;95953.89;110090;1244;59362;-72
2023/03/15 11:59:24;;;;;;;;;;;;;;;13.24;34.52;95946.46;109877;1244;59112;-72
2023/03/15 12:01:52;;;;;;;;;;;;;;;13.34;34.87;95944.93;109932;1244;70648;-70
2023/03/15 12:04:24;;;;;;;;;;;;;;;13.36;33.65;95935.41;109843;1244;68304;-70
2023/03/15 12:06:54;;;;;;;;;;;;;;;13.25;33.90;95928.73;109873;1243;68790;-71
2023/03/15 12:09:32;;;;;;;;;;;;;;;13.20;35.07;95921.84;109914;1244;58910;-74
2023/03/15 12:12:03;;;;;;;;;;;;;;;13.09;35.07;95918.55;109932;1245;58904;-71
2023/03/15 12:14:36;;;;;;;;;;;;;;;13.06;35.12;95913.98;109983;1244;70583;-70
2023/03/15 12:17:27;;;;;;;;;;;;;;;13.11;35.77;95910.58;110079;1245;69460;-71
2023/03/15 12:24:00;;;;;;;;;;;;;;;13.00;34.87;95904.41;109990;1245;58860;-71
2023/03/15 12:26:47;;;;;;;;;;;;;;;12.88;35.32;95906.42;109984;1244;58884;-71
2023/03/15 12:29:24;;;;;;;;;;;;;;;12.84;34.99;95897.59;110137;1244;71248;-71
2023/03/15 12:31:55;;;;;;;;;;;;;;;12.81;35.28;95892.65;109911;1244;69124;-71
2023/03/15 12:34:26;;;;;;;;;;;;;;;12.88;36.13;95888.63;109822;1243;69135;-71
2023/03/15 12:37:01;;;;;;;;;;;;;;;12.87;36.60;95888.77;109982;1244;58989;-71
2023/03/15 12:39:37;;;;;;;;;;;;;;;12.89;37.17;95886.17;109810;1244;58882;-71
2023/03/15 12:42:10;;;;;;;;;;;;;;;12.93;38.19;95880.58;109801;1242;71182;-71
2023/03/15 12:44:40;;;;;;;;;;;;;;;12.99;37.69;95878.16;109836;1244;69239;-70
2023/03/15 12:47:10;;;;;;;;;;;;;;;13.14;36.93;95880.51;109838;1244;68276;-71
2023/03/15 12:49:39;;;;;;;;;;;;;;;13.27;37.00;95869.27;109900;1244;58963;-71
2023/03/15 12:52:12;;;;;;;;;;;;;;;13.28;35.75;95859.70;109815;1244;58882;-71
2023/03/15 12:54:57;;;;;;;;;;;;;;;13.34;36.58;95859.77;109874;1244;70103;-71
2023/03/15 12:57:28;;;;;;;;;;;;;;;13.28;36.53;95865.30;109919;1244;68545;-70
2023/03/15 12:59:59;;;;;;;;;;;;;;;13.20;36.83;95868.55;109801;1244;69271;-71
2023/03/15 13:02:35;;;;;;;;;;;;;;;13.18;37.03;95869.16;109854;1244;58907;-70
2023/03/15 13:05:35;;;;;;;;;;;;;;;13.24;36.53;95866.33;109862;1244;58896;-71
2023/03/15 13:08:09;;;;;;;;;;;;;;;13.17;37.12;95868.75;109819;1243;70169;-70
2023/03/15 13:10:55;;;;;;;;;;;;;;;13.11;37.74;95872.48;109998;1244;69855;-71